createdAt,value
2019-05-18T00:02:00.524Z,6.87
2019-05-18T00:04:34.683Z,7.42
2019-05-18T00:07:03.395Z,6.95
2019-05-18T00:09:32.155Z,7.42
2019-05-18T00:12:01.879Z,6.83
2019-05-18T00:14:39.719Z,6.92
2019-05-18T00:17:24.561Z,7.45
2019-05-18T00:20:02.195Z,8.40
2019-05-18T00:22:30.873Z,6.78
2019-05-18T00:24:59.617Z,7.28
2019-05-18T00:27:28.391Z,8.50
2019-05-18T00:29:57.077Z,7.92
2019-05-18T00:32:28.472Z,7.50
2019-05-18T00:35:04.945Z,8.28
2019-05-18T00:37:37.787Z,7.75
2019-05-18T00:40:09.999Z,7.50
2019-05-18T00:42:43.082Z,7.85
2019-05-18T00:45:17.115Z,7.90
2019-05-18T00:47:49.934Z,7.10
2019-05-18T00:50:18.755Z,7.58
2019-05-18T00:52:48.986Z,7.90
2019-05-18T00:55:21.637Z,7.53
2019-05-18T00:57:52.271Z,7.03
2019-05-18T01:00:32.337Z,7.35
2019-05-18T01:03:08.085Z,7.83
2019-05-18T01:05:43.873Z,6.85
2019-05-18T01:08:14.052Z,7.60
2019-05-18T01:10:43.877Z,7.67
2019-05-18T01:13:12.992Z,7.53
2019-05-18T01:15:41.706Z,8.15
2019-05-18T01:18:13.270Z,7.90
2019-05-18T01:20:42.097Z,7.85
2019-05-18T01:23:17.677Z,7.53
2019-05-18T01:25:47.913Z,8.10
2019-05-18T01:28:23.908Z,7.58
2019-05-18T01:30:50.269Z,8.03
2019-05-18T01:33:20.418Z,7.87
2019-05-18T01:35:53.825Z,7.35
2019-05-18T01:38:29.407Z,7.62
2019-05-18T01:41:02.599Z,7.92
2019-05-18T01:43:35.981Z,7.90
2019-05-18T01:46:08.949Z,7.67
2019-05-18T01:48:40.689Z,7.40
2019-05-18T01:51:12.033Z,8.20
2019-05-18T01:53:43.065Z,8.45
2019-05-18T01:56:20.581Z,8.68
2019-05-18T01:58:49.414Z,8.80
2019-05-18T02:01:18.071Z,9.05
2019-05-18T02:03:49.833Z,8.08
2019-05-18T02:06:18.603Z,7.62
2019-05-18T02:08:47.338Z,9.03
2019-05-18T02:11:16.063Z,9.40
2019-05-18T02:13:47.816Z,9.63
2019-05-18T02:16:16.534Z,8.83
2019-05-18T02:18:45.121Z,8.80
2019-05-18T02:21:16.892Z,9.35
2019-05-18T02:23:45.658Z,9.73
2019-05-18T02:26:17.505Z,8.15
2019-05-18T02:28:52.850Z,7.78
2019-05-18T02:31:25.776Z,8.00
2019-05-18T02:33:52.089Z,7.47
2019-05-18T02:36:25.073Z,8.30
2019-05-18T02:38:57.686Z,8.85
2019-05-18T02:41:29.097Z,8.38
2019-05-18T02:44:08.033Z,9.48
2019-05-18T02:46:28.234Z,9.63
2019-05-18T02:48:57.013Z,10.68
2019-05-18T02:51:28.586Z,10.50
2019-05-18T02:53:57.304Z,8.60
2019-05-18T02:56:26.060Z,7.90
2019-05-18T02:58:54.799Z,8.50
2019-05-18T03:01:23.467Z,8.98
2019-05-18T03:03:53.582Z,8.48
2019-05-18T03:06:26.611Z,7.90
2019-05-18T03:08:55.456Z,7.85
2019-05-18T03:11:24.230Z,8.90
2019-05-18T03:13:52.902Z,8.50
2019-05-18T03:16:29.049Z,8.60
2019-05-18T03:19:08.215Z,9.73
2019-05-18T03:21:29.754Z,11.22
2019-05-18T03:24:14.976Z,10.43
2019-05-18T03:26:47.920Z,10.53
2019-05-18T03:29:35.178Z,10.28
2019-05-18T03:32:03.828Z,11.12
2019-05-18T03:34:34.025Z,9.13
2019-05-18T03:37:04.377Z,10.08
2019-05-18T03:39:33.142Z,10.93
2019-05-18T03:42:03.272Z,11.48
2019-05-18T03:44:32.064Z,11.55
2019-05-18T03:47:09.527Z,11.88
2019-05-18T03:49:48.783Z,13.20
2019-05-18T03:52:23.388Z,13.38
2019-05-18T03:54:52.794Z,10.43
2019-05-18T03:57:21.550Z,10.90
2019-05-18T03:59:50.273Z,10.70
2019-05-18T04:02:20.660Z,10.38
2019-05-18T04:04:51.875Z,10.18
2019-05-18T04:07:20.604Z,9.70
2019-05-18T04:09:55.857Z,8.68
2019-05-18T04:12:31.554Z,11.25
2019-05-18T04:15:01.986Z,10.60
2019-05-18T04:17:30.668Z,12.65
2019-05-18T04:20:00.777Z,13.32
2019-05-18T04:22:29.552Z,14.30
2019-05-18T04:25:04.347Z,12.37
2019-05-18T04:27:33.110Z,10.78
2019-05-18T04:30:06.184Z,12.37
2019-05-18T04:32:37.926Z,12.53
2019-05-18T04:35:09.672Z,12.05
2019-05-18T04:37:38.434Z,11.53
2019-05-18T04:40:09.192Z,12.00
2019-05-18T04:42:37.828Z,12.05
2019-05-18T04:45:13.371Z,11.78
2019-05-18T04:47:48.490Z,12.18
2019-05-18T04:50:16.042Z,11.78
2019-05-18T04:52:46.225Z,11.50
2019-05-18T04:55:14.894Z,11.43
2019-05-18T04:57:43.544Z,12.00
2019-05-18T05:00:12.747Z,11.93
2019-05-18T05:02:44.136Z,10.70
2019-05-18T05:05:17.061Z,11.70
2019-05-18T05:07:47.012Z,12.18
2019-05-18T05:10:15.943Z,11.43
2019-05-18T05:12:47.743Z,11.25
2019-05-18T05:15:16.446Z,11.45
2019-05-18T05:17:45.171Z,13.40
2019-05-18T05:20:19.595Z,10.85
2019-05-18T05:22:44.605Z,12.80
2019-05-18T05:25:13.307Z,11.55
2019-05-18T05:27:42.112Z,11.43
2019-05-18T05:30:15.961Z,11.63
2019-05-18T05:32:46.917Z,11.48
2019-05-18T05:35:15.789Z,12.30
2019-05-18T05:37:44.464Z,12.60
2019-05-18T05:40:13.399Z,11.00
2019-05-18T05:42:42.212Z,13.05
2019-05-18T05:45:11.359Z,11.93
2019-05-18T05:47:39.952Z,10.65
2019-05-18T05:50:15.920Z,10.70
2019-05-18T05:52:51.574Z,10.75
2019-05-18T05:55:22.225Z,12.15
2019-05-18T05:57:53.142Z,11.30
2019-05-18T06:00:22.290Z,11.35
2019-05-18T06:02:53.136Z,11.08
2019-05-18T06:05:27.479Z,11.80
2019-05-18T06:07:56.193Z,11.25
2019-05-18T06:10:24.861Z,12.05
2019-05-18T06:12:53.604Z,11.22
2019-05-18T06:15:22.284Z,12.20
2019-05-18T06:17:54.032Z,12.50
2019-05-18T06:20:24.272Z,11.95
2019-05-18T06:23:00.565Z,12.13
2019-05-18T06:25:34.084Z,12.03
2019-05-18T06:28:03.790Z,12.63
2019-05-18T06:30:32.516Z,11.73
2019-05-18T06:33:02.615Z,11.45
2019-05-18T06:35:35.378Z,12.07
2019-05-18T06:38:08.272Z,12.15
2019-05-18T06:40:36.907Z,12.23
2019-05-18T06:43:05.733Z,10.98
2019-05-18T06:45:34.497Z,10.48
2019-05-18T06:48:07.475Z,11.03
2019-05-18T06:50:37.732Z,10.38
2019-05-18T06:53:09.034Z,10.65
2019-05-18T06:56:02.039Z,11.08
2019-05-18T06:58:31.301Z,9.78
2019-05-18T07:01:12.209Z,10.48
2019-05-18T07:03:40.918Z,10.32
2019-05-18T07:06:16.523Z,9.75
2019-05-18T07:08:45.253Z,9.85
2019-05-18T07:11:16.511Z,11.25
2019-05-18T07:13:51.301Z,10.35
2019-05-18T07:16:32.385Z,8.63
2019-05-18T07:19:01.112Z,10.03
2019-05-18T07:21:29.852Z,10.05
2019-05-18T07:23:59.752Z,10.70
2019-05-18T07:26:28.708Z,8.80
2019-05-18T07:28:57.585Z,9.18
2019-05-18T07:31:26.235Z,9.68
2019-05-18T07:33:56.583Z,9.33
2019-05-18T07:36:28.000Z,10.10
2019-05-18T07:38:56.644Z,8.58
2019-05-18T07:41:28.418Z,8.63
2019-05-18T07:43:57.100Z,8.20
2019-05-18T07:46:28.696Z,9.53
2019-05-18T07:48:57.506Z,10.18
2019-05-18T07:51:36.686Z,9.10
2019-05-18T07:53:56.609Z,8.40
2019-05-18T07:56:28.083Z,9.45
2019-05-18T07:59:02.010Z,8.48
2019-05-18T08:01:30.705Z,8.83
2019-05-18T08:04:02.827Z,8.13
2019-05-18T08:06:31.492Z,8.43
2019-05-18T08:09:00.135Z,8.58
2019-05-18T08:11:28.849Z,9.10
2019-05-18T08:14:04.080Z,9.00
2019-05-18T08:16:32.920Z,8.85
2019-05-18T08:19:01.637Z,8.75
2019-05-18T08:21:30.448Z,9.05
2019-05-18T08:24:02.241Z,8.25
2019-05-18T08:26:31.089Z,7.90
2019-05-18T08:28:59.839Z,7.75
2019-05-18T08:31:37.055Z,7.80
2019-05-18T08:34:05.879Z,9.05
2019-05-18T08:36:36.156Z,7.75
2019-05-18T08:39:06.309Z,7.78
2019-05-18T08:41:37.654Z,8.10
2019-05-18T08:44:09.278Z,7.53
2019-05-18T08:46:40.637Z,7.65
2019-05-18T08:49:09.370Z,7.92
2019-05-18T08:51:39.848Z,7.70
2019-05-18T08:54:15.179Z,8.33
2019-05-18T08:56:43.686Z,8.03
2019-05-18T08:59:16.435Z,7.90
2019-05-18T09:01:45.115Z,8.78
2019-05-18T09:04:15.273Z,8.08
2019-05-18T09:06:45.122Z,8.23
2019-05-18T09:09:13.811Z,8.35
2019-05-18T09:11:45.404Z,7.62
2019-05-18T09:14:14.088Z,8.20
2019-05-18T09:16:42.738Z,8.03
2019-05-18T09:19:11.446Z,7.35
2019-05-18T09:21:40.237Z,6.62
2019-05-18T09:24:09.069Z,8.10
2019-05-18T09:26:37.881Z,8.40
2019-05-18T09:29:06.596Z,7.72
2019-05-18T09:31:35.365Z,7.35
2019-05-18T09:34:04.219Z,6.92
2019-05-18T09:36:32.934Z,8.00
2019-05-18T09:39:01.685Z,7.58
2019-05-18T09:41:30.423Z,7.42
2019-05-18T09:43:58.995Z,6.72
2019-05-18T09:46:27.867Z,5.87
2019-05-18T09:48:56.717Z,5.70
2019-05-18T09:51:25.571Z,5.47
2019-05-18T09:53:54.195Z,7.03
2019-05-18T09:56:22.906Z,7.28
2019-05-18T09:58:51.678Z,5.42
2019-05-18T10:01:20.499Z,5.55
2019-05-18T10:03:49.457Z,6.00
2019-05-18T10:06:18.132Z,5.28
2019-05-18T10:08:46.781Z,5.60
2019-05-18T10:11:15.701Z,5.45
2019-05-18T10:13:45.926Z,5.25
2019-05-18T10:16:14.766Z,4.90
2019-05-18T10:18:43.507Z,4.20
2019-05-18T10:21:12.291Z,3.98
2019-05-18T10:23:40.999Z,4.35
2019-05-18T10:26:09.780Z,3.37
2019-05-18T10:28:38.647Z,3.27
2019-05-18T10:31:07.377Z,4.33
2019-05-18T10:33:36.240Z,4.22
2019-05-18T10:36:05.184Z,3.60
2019-05-18T10:38:33.777Z,3.30
2019-05-18T10:41:02.817Z,3.33
2019-05-18T10:43:34.318Z,4.00
2019-05-18T10:46:03.155Z,3.58
2019-05-18T10:48:31.928Z,3.50
2019-05-18T10:51:00.660Z,3.72
2019-05-18T10:53:29.397Z,3.22
2019-05-18T10:55:58.194Z,3.60
2019-05-18T10:58:27.004Z,4.35
2019-05-18T11:00:55.748Z,4.05
2019-05-18T11:03:24.601Z,3.92
2019-05-18T11:05:53.345Z,4.15
2019-05-18T11:08:22.154Z,3.52
2019-05-18T11:10:50.917Z,3.70
2019-05-18T11:13:19.744Z,3.60
2019-05-18T11:15:48.522Z,4.05
2019-05-18T11:18:17.229Z,3.75
2019-05-18T11:20:45.976Z,3.05
2019-05-18T11:23:14.644Z,3.55
2019-05-18T11:25:43.398Z,3.00
2019-05-18T11:28:12.169Z,3.20
2019-05-18T11:30:40.919Z,3.35
2019-05-18T11:33:09.693Z,3.37
2019-05-18T11:35:38.514Z,3.40
2019-05-18T11:38:07.234Z,3.33
2019-05-18T11:40:35.916Z,3.52
2019-05-18T11:43:04.622Z,3.20
2019-05-18T11:45:33.917Z,3.92
2019-05-18T11:48:02.596Z,3.67
2019-05-18T11:50:31.364Z,3.27
2019-05-18T11:53:00.122Z,2.75
2019-05-18T11:55:28.782Z,3.08
2019-05-18T11:57:57.487Z,2.65
2019-05-18T12:00:26.695Z,2.72
2019-05-18T12:02:55.444Z,2.45
2019-05-18T12:05:24.162Z,2.85
2019-05-18T12:07:52.742Z,3.10
2019-05-18T12:10:21.677Z,2.72
2019-05-18T12:12:50.422Z,2.62
2019-05-18T12:15:19.396Z,2.47
2019-05-18T12:17:48.198Z,2.83
2019-05-18T12:20:17.480Z,2.70
2019-05-18T12:22:46.136Z,2.77
2019-05-18T12:25:14.902Z,3.77
2019-05-18T12:27:45.111Z,2.92
2019-05-18T12:30:14.739Z,2.50
2019-05-18T12:32:43.526Z,3.20
2019-05-18T12:35:12.835Z,2.70
2019-05-18T12:37:41.478Z,2.90
2019-05-18T12:40:10.848Z,2.70
2019-05-18T12:42:39.572Z,2.87
2019-05-18T12:45:09.529Z,3.33
2019-05-18T12:47:38.185Z,3.05
2019-05-18T12:50:08.222Z,3.00
2019-05-18T12:52:37.087Z,2.47
2019-05-18T12:55:07.480Z,3.25
2019-05-18T12:57:36.673Z,2.90
2019-05-18T13:00:10.662Z,2.95
2019-05-18T13:02:39.393Z,3.05
2019-05-18T13:05:09.204Z,3.50
2019-05-18T13:07:37.845Z,2.95
2019-05-18T13:10:09.413Z,3.00
2019-05-18T13:12:38.288Z,2.90
2019-05-18T13:15:09.187Z,3.50
2019-05-18T13:17:38.011Z,3.30
2019-05-18T13:20:09.774Z,3.27
2019-05-18T13:22:38.430Z,3.33
2019-05-18T13:25:08.062Z,3.12
2019-05-18T13:27:39.878Z,3.02
2019-05-18T13:30:08.860Z,3.35
2019-05-18T13:32:40.240Z,3.45
2019-05-18T13:35:09.541Z,3.27
2019-05-18T13:37:38.196Z,3.62
2019-05-18T13:40:07.930Z,3.65
2019-05-18T13:42:36.618Z,3.60
2019-05-18T13:45:09.516Z,3.50
2019-05-18T13:47:38.236Z,3.65
2019-05-18T13:50:07.749Z,3.67
2019-05-18T13:52:36.455Z,3.27
2019-05-18T13:55:06.607Z,3.65
2019-05-18T13:57:35.669Z,3.12
2019-05-18T14:00:07.023Z,3.30
2019-05-18T14:02:35.664Z,3.70
2019-05-18T14:05:05.425Z,4.17
2019-05-18T14:07:34.158Z,3.15
2019-05-18T14:10:02.864Z,3.10
2019-05-18T14:12:33.073Z,2.90
2019-05-18T14:15:01.726Z,3.60
2019-05-18T14:17:30.442Z,3.67
2019-05-18T14:19:59.245Z,3.00
2019-05-18T14:22:27.894Z,3.10
2019-05-18T14:24:56.552Z,2.80
2019-05-18T14:27:25.242Z,2.90
2019-05-18T14:29:54.003Z,3.50
2019-05-18T14:32:22.660Z,3.50
2019-05-18T14:34:51.276Z,3.70
2019-05-18T14:37:19.999Z,3.60
2019-05-18T14:39:48.707Z,2.95
2019-05-18T14:42:17.413Z,2.90
2019-05-18T14:44:46.070Z,3.17
2019-05-18T14:47:14.847Z,2.95
2019-05-18T14:49:43.628Z,3.05
2019-05-18T14:52:12.478Z,3.12
2019-05-18T14:54:41.124Z,3.27
2019-05-18T14:57:09.821Z,3.50
2019-05-18T14:59:38.482Z,3.52
2019-05-18T15:02:07.142Z,3.35
2019-05-18T15:04:35.862Z,3.60
2019-05-18T15:07:04.522Z,2.92
2019-05-18T15:09:33.162Z,3.22
2019-05-18T15:12:02.081Z,3.08
2019-05-18T15:14:30.898Z,3.42
2019-05-18T15:16:59.556Z,3.40
2019-05-18T15:19:28.202Z,3.30
2019-05-18T15:21:57.240Z,3.80
2019-05-18T15:24:25.885Z,3.12
2019-05-18T15:26:54.707Z,3.58
2019-05-18T15:29:23.393Z,3.45
2019-05-18T15:31:52.110Z,4.03
2019-05-18T15:34:23.804Z,2.98
2019-05-18T15:36:52.549Z,2.90
2019-05-18T15:39:21.281Z,3.17
2019-05-18T15:41:49.940Z,3.12
2019-05-18T15:44:18.759Z,3.22
2019-05-18T15:46:47.475Z,3.37
2019-05-18T15:49:16.206Z,3.30
2019-05-18T15:51:44.990Z,3.05
2019-05-18T15:54:13.638Z,3.00
2019-05-18T15:56:47.880Z,2.62
2019-05-18T15:59:16.659Z,3.42
2019-05-18T16:01:45.377Z,3.12
2019-05-18T16:04:14.086Z,2.67
2019-05-18T16:06:42.862Z,3.02
2019-05-18T16:09:11.536Z,2.87
2019-05-18T16:11:40.264Z,3.10
2019-05-18T16:14:09.033Z,2.67
2019-05-18T16:16:37.684Z,3.05
2019-05-18T16:19:09.334Z,2.70
2019-05-18T16:21:38.078Z,2.70
2019-05-18T16:24:06.795Z,2.72
2019-05-18T16:26:35.565Z,3.87
2019-05-18T16:29:04.251Z,3.45
2019-05-18T16:31:33.002Z,3.00
2019-05-18T16:34:01.848Z,3.58
2019-05-18T16:36:34.547Z,2.90
2019-05-18T16:39:06.215Z,2.60
2019-05-18T16:41:34.999Z,3.35
2019-05-18T16:44:03.748Z,3.40
2019-05-18T16:46:32.435Z,3.30
2019-05-18T16:49:08.757Z,3.27
2019-05-18T16:51:37.454Z,3.52
2019-05-18T16:54:06.165Z,3.20
2019-05-18T16:56:35.547Z,2.92
2019-05-18T16:59:04.248Z,3.12
2019-05-18T17:01:33.018Z,2.85
2019-05-18T17:04:03.223Z,3.10
2019-05-18T17:06:31.867Z,3.22
2019-05-18T17:09:00.517Z,3.33
2019-05-18T17:11:38.165Z,3.30
2019-05-18T17:14:09.751Z,3.10
2019-05-18T17:16:38.477Z,3.42
2019-05-18T17:19:08.675Z,3.20
2019-05-18T17:21:40.408Z,3.37
2019-05-18T17:24:09.139Z,3.12
2019-05-18T17:26:51.769Z,3.17
2019-05-18T17:29:19.296Z,4.00
2019-05-18T17:31:48.118Z,3.00
2019-05-18T17:34:16.743Z,3.20
2019-05-18T17:36:45.554Z,3.60
2019-05-18T17:39:14.294Z,4.22
2019-05-18T17:41:43.006Z,4.75
2019-05-18T17:44:11.685Z,7.30
2019-05-18T17:46:40.452Z,7.28
2019-05-18T17:49:25.593Z,6.08
2019-05-18T17:51:39.549Z,6.75
2019-05-18T17:57:08.114Z,4.72
2019-05-18T17:59:28.334Z,5.03
2019-05-18T18:01:56.980Z,5.17
2019-05-18T18:04:37.653Z,5.00
2019-05-18T18:07:06.375Z,4.45
2019-05-18T18:09:35.099Z,4.12
2019-05-18T18:12:06.885Z,4.60
2019-05-18T18:14:35.635Z,4.78
2019-05-18T18:17:04.424Z,4.42
2019-05-18T18:19:33.122Z,4.75
2019-05-18T18:22:01.839Z,5.30
2019-05-18T18:24:30.569Z,4.50
2019-05-18T18:26:59.295Z,5.33
2019-05-18T18:29:27.940Z,4.97
2019-05-18T18:31:56.601Z,5.10
2019-05-18T18:34:25.471Z,4.47
2019-05-18T18:36:54.224Z,4.58
2019-05-18T18:39:22.941Z,5.10
2019-05-18T18:41:51.707Z,4.33
2019-05-18T18:44:20.426Z,4.33
2019-05-18T18:46:49.019Z,5.08
2019-05-18T18:49:17.737Z,4.80
2019-05-18T18:51:46.475Z,4.10
2019-05-18T18:54:15.173Z,4.37
2019-05-18T18:56:43.941Z,4.35
2019-05-18T18:59:12.590Z,4.60
2019-05-18T19:01:41.240Z,3.80
2019-05-18T19:04:09.999Z,3.80
2019-05-18T19:06:38.745Z,3.95
2019-05-18T19:09:07.560Z,3.60
2019-05-18T19:11:36.269Z,3.90
2019-05-18T19:14:05.639Z,3.77
2019-05-18T19:16:34.385Z,4.03
2019-05-18T19:19:03.172Z,4.28
2019-05-18T19:21:31.842Z,3.87
2019-05-18T19:24:00.541Z,4.28
2019-05-18T19:26:29.402Z,4.17
2019-05-18T19:28:58.151Z,3.95
2019-05-18T19:31:26.798Z,4.50
2019-05-18T19:33:55.476Z,3.92
2019-05-18T19:36:24.288Z,4.03
2019-05-18T19:38:53.019Z,4.00
2019-05-18T19:41:22.035Z,3.80
2019-05-18T19:43:50.660Z,3.83
2019-05-18T19:46:19.390Z,3.50
2019-05-18T19:48:48.258Z,3.40
2019-05-18T19:51:16.923Z,3.80
2019-05-18T19:53:45.544Z,3.70
2019-05-18T19:56:14.303Z,3.95
2019-05-18T19:58:42.979Z,3.95
2019-05-18T20:01:11.649Z,3.83
2019-05-18T20:03:40.268Z,3.40
2019-05-18T20:06:08.998Z,3.00
2019-05-18T20:08:37.747Z,3.77
2019-05-18T20:11:06.382Z,3.77
2019-05-18T20:13:35.094Z,4.30
2019-05-18T20:16:03.759Z,3.95
2019-05-18T20:18:32.466Z,3.65
2019-05-18T20:21:01.212Z,3.58
2019-05-18T20:23:30.024Z,3.52
2019-05-18T20:25:58.630Z,3.33
2019-05-18T20:28:27.371Z,3.92
2019-05-18T20:30:56.021Z,3.83
2019-05-18T20:33:24.808Z,4.42
2019-05-18T20:35:53.453Z,3.80
2019-05-18T20:38:22.094Z,4.00
2019-05-18T20:40:50.853Z,4.05
2019-05-18T20:43:19.600Z,4.20
2019-05-18T20:45:48.264Z,4.15
2019-05-18T20:48:17.180Z,4.17
2019-05-18T20:50:45.941Z,4.10
2019-05-18T20:53:14.671Z,3.90
2019-05-18T20:55:43.524Z,3.87
2019-05-18T20:58:12.188Z,4.22
2019-05-18T21:00:40.862Z,3.87
2019-05-18T21:03:09.568Z,4.00
2019-05-18T21:05:38.285Z,4.22
2019-05-18T21:08:07.014Z,3.95
2019-05-18T21:10:35.673Z,4.03
2019-05-18T21:13:04.334Z,4.00
2019-05-18T21:15:33.112Z,4.08
2019-05-18T21:18:01.857Z,4.03
2019-05-18T21:20:30.500Z,4.47
2019-05-18T21:22:59.233Z,4.65
2019-05-18T21:25:27.985Z,8.10
2019-05-18T21:27:56.699Z,4.28
2019-05-18T21:30:25.404Z,7.25
2019-05-18T21:32:54.126Z,5.25
2019-05-18T21:35:22.811Z,5.92
2019-05-18T21:37:51.498Z,4.83
2019-05-18T21:40:20.314Z,4.10
2019-05-18T21:42:49.045Z,5.00
2019-05-18T21:45:17.811Z,8.18
2019-05-18T21:47:46.465Z,9.70
2019-05-18T21:50:15.203Z,11.50
2019-05-18T21:52:44.003Z,13.03
2019-05-18T21:55:12.706Z,10.55
2019-05-18T21:57:41.368Z,8.65
2019-05-18T22:00:10.899Z,8.30
2019-05-18T22:02:39.633Z,7.62
2019-05-18T22:05:08.526Z,6.60
2019-05-18T22:07:37.281Z,6.22
2019-05-18T22:10:07.712Z,5.22
2019-05-18T22:12:36.431Z,5.55
2019-05-18T22:15:06.945Z,5.47
2019-05-18T22:17:37.234Z,5.40
2019-05-18T22:20:09.131Z,5.70
2019-05-18T22:22:37.799Z,5.25
2019-05-18T22:25:06.453Z,4.97
2019-05-18T22:27:35.188Z,5.30
2019-05-18T22:30:03.906Z,7.20
2019-05-18T22:32:32.628Z,6.22
2019-05-18T22:35:01.354Z,4.85
2019-05-18T22:37:30.133Z,4.37
2019-05-18T22:39:58.787Z,3.87
2019-05-18T22:42:27.369Z,3.72
2019-05-18T22:44:56.110Z,3.95
2019-05-18T22:47:24.826Z,4.10
2019-05-18T22:49:53.609Z,3.87
2019-05-18T22:52:22.259Z,3.25
2019-05-18T22:54:50.942Z,3.37
2019-05-18T22:57:19.720Z,3.98
2019-05-18T22:59:48.437Z,3.90
2019-05-18T23:02:17.170Z,3.20
2019-05-18T23:04:46.019Z,3.60
2019-05-18T23:07:14.594Z,3.40
2019-05-18T23:09:43.329Z,3.80
2019-05-18T23:12:12.087Z,3.80
2019-05-18T23:14:40.764Z,3.40
2019-05-18T23:17:09.428Z,3.42
2019-05-18T23:19:38.206Z,4.55
2019-05-18T23:22:06.906Z,4.45
2019-05-18T23:24:35.588Z,6.28
2019-05-18T23:27:04.279Z,6.53
2019-05-18T23:29:32.990Z,5.92
2019-05-18T23:32:01.725Z,6.03
2019-05-18T23:34:30.518Z,6.08
2019-05-18T23:36:59.273Z,6.22
2019-05-18T23:39:27.976Z,6.50
2019-05-18T23:41:56.737Z,6.72
2019-05-18T23:44:25.472Z,6.47
2019-05-18T23:46:54.216Z,6.83
2019-05-18T23:49:22.920Z,6.15
2019-05-18T23:51:51.567Z,5.78
2019-05-18T23:54:20.294Z,7.03
2019-05-18T23:56:49.103Z,12.40
2019-05-18T23:59:17.773Z,18.40
